createdAt,value
2023-01-08T00:01:31.832Z,67.88
2023-01-08T00:04:00.126Z,63.08
2023-01-08T00:06:28.451Z,68.15
2023-01-08T00:08:56.635Z,63.03
2023-01-08T00:11:26.458Z,59.67
2023-01-08T00:13:54.595Z,64.15
2023-01-08T00:16:22.850Z,61.35
2023-01-08T00:18:51.063Z,54.35
2023-01-08T00:21:19.335Z,59.22
2023-01-08T00:23:47.558Z,56.20
2023-01-08T00:26:16.185Z,55.00
2023-01-08T00:28:45.733Z,56.15
2023-01-08T00:31:14.536Z,60.90
2023-01-08T00:33:43.037Z,54.75
2023-01-08T00:36:13.132Z,57.80
2023-01-08T00:38:41.529Z,57.35
2023-01-08T00:41:09.878Z,54.92
2023-01-08T00:43:38.938Z,57.42
2023-01-08T00:46:09.350Z,52.20
2023-01-08T00:48:38.981Z,55.05
2023-01-08T00:51:08.970Z,53.28
2023-01-08T00:53:38.087Z,50.90
2023-01-08T00:56:08.451Z,50.08
2023-01-08T00:58:36.916Z,50.60
2023-01-08T01:01:12.698Z,47.72
2023-01-08T01:03:41.118Z,52.78
2023-01-08T01:06:09.898Z,48.72
2023-01-08T01:08:38.246Z,47.65
2023-01-08T01:11:08.740Z,48.67
2023-01-08T01:13:36.921Z,49.42
2023-01-08T01:16:05.776Z,54.22
2023-01-08T01:18:35.610Z,48.90
2023-01-08T01:21:03.845Z,50.30
2023-01-08T01:23:32.118Z,49.35
2023-01-08T01:26:00.266Z,47.25
2023-01-08T01:28:28.539Z,50.95
2023-01-08T01:30:57.251Z,51.45
2023-01-08T01:33:25.651Z,51.10
2023-01-08T01:36:03.527Z,46.72
2023-01-08T01:38:31.970Z,47.85
2023-01-08T01:41:00.644Z,48.55
2023-01-08T01:43:39.888Z,46.10
2023-01-08T01:46:22.194Z,50.42
2023-01-08T01:48:54.436Z,49.00
2023-01-08T01:51:30.447Z,50.80
2023-01-08T01:53:59.791Z,47.10
2023-01-08T01:56:28.935Z,51.20
2023-01-08T01:58:57.443Z,45.80
2023-01-08T02:01:26.593Z,44.40
2023-01-08T02:03:54.914Z,47.55
2023-01-08T02:06:34.565Z,45.60
2023-01-08T02:09:05.394Z,45.50
2023-01-08T02:11:44.429Z,45.63
2023-01-08T02:14:18.076Z,47.28
2023-01-08T02:16:51.492Z,41.55
2023-01-08T02:19:34.408Z,39.70
2023-01-08T02:22:15.738Z,43.00
2023-01-08T02:24:54.651Z,39.05
2023-01-08T02:27:29.033Z,41.63
2023-01-08T02:29:58.159Z,40.53
2023-01-08T02:32:28.430Z,36.15
2023-01-08T02:34:56.714Z,37.30
2023-01-08T02:37:25.175Z,40.97
2023-01-08T02:40:03.179Z,31.25
2023-01-08T02:42:41.812Z,32.40
2023-01-08T02:45:21.151Z,35.22
2023-01-08T02:47:55.710Z,30.02
2023-01-08T02:50:29.882Z,28.50
2023-01-08T02:53:05.026Z,31.90
2023-01-08T02:55:35.467Z,27.45
2023-01-08T02:58:05.796Z,27.15
2023-01-08T03:00:35.920Z,29.23
2023-01-08T03:03:10.972Z,29.85
2023-01-08T03:05:42.172Z,28.88
2023-01-08T03:08:11.488Z,26.20
2023-01-08T03:10:42.645Z,30.45
2023-01-08T03:13:17.243Z,30.13
2023-01-08T03:15:50.851Z,23.83
2023-01-08T03:18:23.158Z,23.63
2023-01-08T03:20:52.321Z,29.13
2023-01-08T03:23:22.987Z,24.45
2023-01-08T03:25:51.485Z,27.83
2023-01-08T03:28:25.424Z,26.13
2023-01-08T03:30:55.248Z,25.95
2023-01-08T03:33:25.215Z,24.38
2023-01-08T03:35:56.279Z,25.95
2023-01-08T03:38:27.646Z,24.17
2023-01-08T03:41:00.724Z,23.85
2023-01-08T03:43:31.013Z,28.38
2023-01-08T03:46:03.089Z,27.85
2023-01-08T03:48:33.471Z,27.80
2023-01-08T03:51:01.793Z,24.33
2023-01-08T03:53:30.229Z,22.95
2023-01-08T03:55:59.390Z,24.60
2023-01-08T03:58:27.608Z,22.40
2023-01-08T04:00:57.178Z,22.67
2023-01-08T04:03:25.595Z,25.13
2023-01-08T04:05:53.755Z,21.27
2023-01-08T04:08:22.169Z,23.48
2023-01-08T04:10:50.291Z,27.02
2023-01-08T04:13:18.504Z,25.45
2023-01-08T04:15:49.440Z,22.75
2023-01-08T04:18:19.659Z,22.42
2023-01-08T04:20:48.165Z,22.70
2023-01-08T04:23:16.981Z,23.42
2023-01-08T04:25:45.095Z,21.33
2023-01-08T04:28:13.380Z,21.05
2023-01-08T04:30:41.588Z,23.45
2023-01-08T04:33:09.833Z,20.55
2023-01-08T04:35:39.415Z,24.95
2023-01-08T04:38:07.762Z,24.25
2023-01-08T04:40:36.157Z,21.13
2023-01-08T04:43:04.386Z,21.27
2023-01-08T04:45:32.680Z,24.88
2023-01-08T04:48:01.352Z,22.35
2023-01-08T04:50:29.465Z,21.77
2023-01-08T04:53:00.420Z,21.90
2023-01-08T04:55:28.674Z,24.35
2023-01-08T04:57:56.801Z,24.42
2023-01-08T05:00:25.088Z,22.40
2023-01-08T05:02:53.346Z,21.95
2023-01-08T05:05:21.665Z,23.67
2023-01-08T05:07:49.799Z,19.98
2023-01-08T05:10:19.514Z,22.15
2023-01-08T05:12:47.626Z,23.58
2023-01-08T05:15:15.948Z,18.67
2023-01-08T05:17:44.085Z,21.70
2023-01-08T05:20:12.909Z,17.67
2023-01-08T05:22:41.071Z,17.90
2023-01-08T05:25:09.990Z,20.85
2023-01-08T05:27:39.538Z,20.23
2023-01-08T05:30:09.210Z,19.90
2023-01-08T05:32:37.338Z,21.73
2023-01-08T05:35:06.205Z,18.38
2023-01-08T05:37:35.777Z,19.20
2023-01-08T05:40:04.148Z,18.95
2023-01-08T05:42:34.615Z,19.08
2023-01-08T05:45:04.831Z,19.40
2023-01-08T05:47:33.698Z,18.15
2023-01-08T05:50:02.361Z,17.58
2023-01-08T05:52:30.915Z,19.13
2023-01-08T05:55:00.173Z,19.02
2023-01-08T05:57:28.412Z,21.17
2023-01-08T05:59:56.674Z,26.08
2023-01-08T06:02:26.186Z,20.48
2023-01-08T06:04:54.466Z,21.38
2023-01-08T06:07:22.650Z,22.20
2023-01-08T06:09:50.827Z,18.70
2023-01-08T06:12:18.940Z,22.23
2023-01-08T06:14:47.227Z,20.88
2023-01-08T06:17:16.429Z,18.08
2023-01-08T06:19:47.547Z,20.73
2023-01-08T06:22:15.886Z,21.55
2023-01-08T06:24:44.071Z,21.20
2023-01-08T06:27:12.266Z,19.77
2023-01-08T06:29:40.478Z,23.15
2023-01-08T06:32:08.694Z,21.83
2023-01-08T06:34:36.860Z,20.25
2023-01-08T06:37:06.463Z,17.60
2023-01-08T06:39:34.610Z,21.40
2023-01-08T06:42:02.894Z,20.15
2023-01-08T06:44:31.061Z,20.98
2023-01-08T06:46:59.229Z,18.95
2023-01-08T06:49:27.432Z,20.80
2023-01-08T06:51:55.714Z,18.83
2023-01-08T06:54:25.228Z,17.30
2023-01-08T06:56:54.495Z,18.98
2023-01-08T06:59:23.549Z,24.75
2023-01-08T07:01:52.005Z,16.00
2023-01-08T07:04:21.036Z,24.75
2023-01-08T07:06:49.290Z,18.38
2023-01-08T07:09:17.509Z,19.52
2023-01-08T07:11:47.152Z,19.83
2023-01-08T07:14:15.838Z,19.65
2023-01-08T07:16:44.024Z,20.98
2023-01-08T07:19:12.626Z,18.00
2023-01-08T07:21:40.970Z,19.92
2023-01-08T07:24:09.723Z,19.30
2023-01-08T07:26:39.647Z,23.35
2023-01-08T07:29:09.435Z,20.92
2023-01-08T07:31:37.777Z,20.40
2023-01-08T07:34:06.319Z,26.08
2023-01-08T07:36:34.548Z,22.67
2023-01-08T07:39:02.976Z,20.05
2023-01-08T07:41:31.211Z,20.73
2023-01-08T07:43:59.385Z,21.50
2023-01-08T07:46:29.073Z,21.85
2023-01-08T07:48:58.038Z,20.45
2023-01-08T07:51:26.350Z,20.40
2023-01-08T07:53:56.353Z,21.92
2023-01-08T07:56:25.743Z,21.40
2023-01-08T07:58:53.955Z,21.58
2023-01-08T08:01:22.374Z,24.00
2023-01-08T08:03:51.921Z,21.27
2023-01-08T08:06:20.188Z,21.05
2023-01-08T08:08:48.498Z,21.25
2023-01-08T08:11:16.782Z,17.42
2023-01-08T08:13:45.235Z,21.42
2023-01-08T08:16:13.834Z,22.52
2023-01-08T08:18:41.997Z,22.50
2023-01-08T08:21:11.593Z,18.80
2023-01-08T08:23:39.743Z,24.73
2023-01-08T08:26:07.955Z,23.15
2023-01-08T08:28:36.130Z,24.15
2023-01-08T08:31:04.477Z,19.77
2023-01-08T08:33:32.751Z,22.80
2023-01-08T08:36:01.088Z,24.40
2023-01-08T08:38:30.671Z,20.35
2023-01-08T08:40:58.894Z,22.38
2023-01-08T08:43:27.107Z,23.17
2023-01-08T08:45:57.017Z,19.98
2023-01-08T08:48:25.499Z,21.40
2023-01-08T08:50:53.792Z,24.00
2023-01-08T08:53:21.968Z,22.67
2023-01-08T08:55:51.552Z,22.73
2023-01-08T08:58:19.746Z,25.52
2023-01-08T09:00:47.966Z,26.48
2023-01-08T09:03:18.932Z,23.23
2023-01-08T09:05:47.180Z,21.90
2023-01-08T09:08:15.299Z,23.10
2023-01-08T09:10:43.727Z,21.83
2023-01-08T09:13:13.800Z,23.17
2023-01-08T09:15:41.982Z,22.15
2023-01-08T09:18:10.159Z,22.55
2023-01-08T09:20:38.704Z,22.35
2023-01-08T09:23:07.133Z,23.73
2023-01-08T09:25:35.360Z,23.40
2023-01-08T09:28:05.304Z,26.30
2023-01-08T09:30:35.423Z,21.52
2023-01-08T09:33:05.031Z,22.10
2023-01-08T09:35:34.267Z,20.80
2023-01-08T09:38:02.472Z,22.90
2023-01-08T09:40:38.933Z,22.63
2023-01-08T09:43:07.424Z,23.05
2023-01-08T09:45:40.703Z,22.67
2023-01-08T09:48:16.439Z,20.63
2023-01-08T09:50:45.123Z,19.70
2023-01-08T09:53:15.857Z,18.67
2023-01-08T09:55:44.652Z,22.42
2023-01-08T09:58:22.719Z,20.05
2023-01-08T10:00:53.190Z,19.20
2023-01-08T10:03:22.539Z,23.20
2023-01-08T10:05:52.645Z,23.30
2023-01-08T10:08:22.541Z,21.73
2023-01-08T10:10:50.875Z,21.58
2023-01-08T10:13:19.325Z,20.75
2023-01-08T10:15:48.881Z,20.52
2023-01-08T10:18:28.728Z,21.20
2023-01-08T10:20:58.009Z,21.98
2023-01-08T10:23:26.189Z,22.05
2023-01-08T10:25:56.698Z,21.75
2023-01-08T10:28:26.755Z,27.75
2023-01-08T10:30:59.759Z,20.98
2023-01-08T10:33:33.005Z,21.55
2023-01-08T10:36:03.800Z,24.15
2023-01-08T10:38:33.971Z,22.00
2023-01-08T10:41:05.301Z,25.33
2023-01-08T10:43:35.994Z,26.83
2023-01-08T10:46:07.785Z,27.52
2023-01-08T10:48:40.279Z,25.45
2023-01-08T10:51:15.644Z,27.55
2023-01-08T10:53:44.038Z,27.88
2023-01-08T10:56:21.969Z,27.65
2023-01-08T10:58:50.846Z,26.95
2023-01-08T11:01:23.457Z,26.25
2023-01-08T11:03:55.331Z,30.05
2023-01-08T11:06:25.647Z,26.00
2023-01-08T11:08:55.944Z,26.23
2023-01-08T11:11:24.763Z,27.20
2023-01-08T11:13:59.086Z,28.52
2023-01-08T11:16:36.322Z,27.67
2023-01-08T11:19:07.256Z,27.08
2023-01-08T11:21:37.005Z,34.75
2023-01-08T11:24:16.311Z,31.13
2023-01-08T11:26:50.157Z,32.90
2023-01-08T11:29:24.938Z,27.92
2023-01-08T11:31:58.651Z,28.17
2023-01-08T11:34:36.097Z,31.20
2023-01-08T11:37:12.792Z,30.55
2023-01-08T11:39:41.154Z,30.33
2023-01-08T11:42:21.961Z,31.77
2023-01-08T11:45:01.683Z,27.42
2023-01-08T11:47:44.322Z,33.78
2023-01-08T11:50:23.064Z,26.05
2023-01-08T11:53:07.221Z,29.48
2023-01-08T11:55:47.404Z,32.00
2023-01-08T11:58:33.752Z,32.15
2023-01-08T12:01:15.204Z,32.03
2023-01-08T12:03:48.226Z,32.90
2023-01-08T12:06:29.695Z,32.35
2023-01-08T12:09:10.600Z,31.17
2023-01-08T12:11:47.923Z,31.65
2023-01-08T12:14:28.568Z,34.00
2023-01-08T12:17:18.236Z,31.95
2023-01-08T12:20:07.040Z,31.08
2023-01-08T12:22:45.054Z,33.13
2023-01-08T12:25:48.608Z,30.98
2023-01-08T12:28:35.695Z,36.58
2023-01-08T12:31:30.587Z,36.75
2023-01-08T12:34:05.454Z,34.78
2023-01-08T12:36:38.868Z,34.97
2023-01-08T12:39:14.039Z,31.90
2023-01-08T12:41:45.004Z,31.30
2023-01-08T12:44:18.569Z,34.47
2023-01-08T12:46:47.085Z,35.80
2023-01-08T12:49:18.827Z,35.50
2023-01-08T12:51:57.027Z,35.20
2023-01-08T12:54:33.430Z,31.15
2023-01-08T12:57:09.388Z,32.67
2023-01-08T12:59:43.913Z,32.60
2023-01-08T13:02:23.399Z,37.72
2023-01-08T13:04:51.717Z,32.78
2023-01-08T13:07:22.642Z,36.03
2023-01-08T13:09:58.242Z,34.10
2023-01-08T13:12:35.337Z,32.05
2023-01-08T13:15:04.947Z,34.95
2023-01-08T13:17:33.162Z,31.77
2023-01-08T13:20:03.964Z,35.90
2023-01-08T13:22:35.252Z,37.88
2023-01-08T13:25:30.221Z,29.98
2023-01-08T13:27:58.908Z,34.08
2023-01-08T13:30:42.415Z,36.08
2023-01-08T13:33:39.704Z,36.00
2023-01-08T13:36:32.089Z,36.28
2023-01-08T13:39:02.203Z,39.88
2023-01-08T13:41:33.017Z,38.08
2023-01-08T13:44:06.769Z,38.28
2023-01-08T13:46:38.314Z,39.45
2023-01-08T13:49:09.180Z,39.85
2023-01-08T13:51:45.694Z,38.58
2023-01-08T13:54:25.818Z,37.70
2023-01-08T13:57:02.998Z,39.97
2023-01-08T13:59:42.629Z,35.72
2023-01-08T14:02:28.812Z,39.20
2023-01-08T14:04:58.238Z,40.92
2023-01-08T14:07:27.022Z,40.38
2023-01-08T14:09:55.406Z,44.93
2023-01-08T14:12:26.170Z,39.42
2023-01-08T14:14:58.923Z,46.97
2023-01-08T14:17:31.545Z,42.50
2023-01-08T14:20:00.465Z,41.45
2023-01-08T14:22:32.738Z,44.15
2023-01-08T14:25:04.373Z,44.80
2023-01-08T14:27:35.371Z,44.72
2023-01-08T14:30:17.808Z,46.80
2023-01-08T14:32:46.481Z,41.60
2023-01-08T14:35:18.046Z,47.72
2023-01-08T14:37:46.308Z,45.28
2023-01-08T14:40:18.609Z,45.75
2023-01-08T14:42:53.306Z,44.17
2023-01-08T14:45:25.447Z,43.50
2023-01-08T14:47:55.929Z,43.47
2023-01-08T14:50:27.545Z,44.17
2023-01-08T14:53:00.821Z,42.95
2023-01-08T14:55:36.808Z,42.85
2023-01-08T14:58:15.073Z,40.92
2023-01-08T15:00:44.111Z,43.03
2023-01-08T15:03:33.930Z,42.13
2023-01-08T15:06:02.534Z,43.17
2023-01-08T15:08:36.111Z,42.28
2023-01-08T15:11:06.723Z,44.45
2023-01-08T15:13:38.497Z,41.45
2023-01-08T15:16:09.798Z,43.00
2023-01-08T15:18:44.874Z,43.03
2023-01-08T15:21:19.366Z,43.10
2023-01-08T15:23:51.592Z,41.28
2023-01-08T15:26:20.082Z,42.20
2023-01-08T15:28:55.042Z,39.85
2023-01-08T15:31:28.564Z,39.13
2023-01-08T15:33:57.343Z,43.10
2023-01-08T15:36:25.433Z,43.83
2023-01-08T15:38:53.914Z,41.67
2023-01-08T15:41:37.617Z,45.97
2023-01-08T15:44:07.855Z,46.08
2023-01-08T15:46:36.106Z,45.72
2023-01-08T15:49:04.348Z,47.50
2023-01-08T15:51:35.197Z,44.22
2023-01-08T15:54:03.769Z,47.40
2023-01-08T15:56:31.949Z,50.80
2023-01-08T15:59:00.136Z,41.20
2023-01-08T16:01:30.281Z,46.10
2023-01-08T16:03:58.910Z,43.17
2023-01-08T16:06:27.162Z,42.63
2023-01-08T16:08:57.821Z,41.03
2023-01-08T16:11:26.070Z,43.90
2023-01-08T16:13:54.332Z,42.90
2023-01-08T16:16:22.666Z,42.80
2023-01-08T16:18:52.596Z,44.65
2023-01-08T16:21:20.760Z,44.97
2023-01-08T16:23:48.999Z,43.55
2023-01-08T16:26:17.746Z,44.70
2023-01-08T16:28:45.976Z,44.92
2023-01-08T16:31:14.209Z,48.58
2023-01-08T16:33:42.641Z,40.35
2023-01-08T16:36:12.591Z,44.35
2023-01-08T16:38:40.829Z,43.33
2023-01-08T16:41:09.054Z,41.30
2023-01-08T16:43:41.063Z,43.22
2023-01-08T16:46:13.882Z,46.05
2023-01-08T16:48:42.888Z,48.72
2023-01-08T16:51:12.710Z,43.90
2023-01-08T16:53:41.092Z,44.17
2023-01-08T16:56:10.373Z,47.17
2023-01-08T16:58:38.690Z,46.40
2023-01-08T17:01:10.488Z,44.95
2023-01-08T17:03:39.196Z,43.00
2023-01-08T17:06:10.587Z,47.40
2023-01-08T17:08:41.670Z,41.13
2023-01-08T17:11:12.170Z,44.53
2023-01-08T17:13:41.275Z,41.95
2023-01-08T17:16:12.237Z,46.25
2023-01-08T17:18:40.982Z,42.78
2023-01-08T17:21:11.543Z,47.00
2023-01-08T17:23:42.363Z,45.43
2023-01-08T17:26:12.198Z,45.55
2023-01-08T17:28:40.750Z,43.13
2023-01-08T17:31:11.023Z,43.80
2023-01-08T17:33:39.709Z,43.87
2023-01-08T17:36:12.385Z,43.00
2023-01-08T17:38:43.042Z,40.80
2023-01-08T17:41:31.977Z,45.60
2023-01-08T17:44:00.403Z,44.80
2023-01-08T17:46:29.101Z,47.13
2023-01-08T17:48:57.371Z,45.13
2023-01-08T17:51:25.574Z,42.65
2023-01-08T17:53:56.841Z,41.08
2023-01-08T17:56:25.511Z,43.17
2023-01-08T17:58:53.800Z,44.60
2023-01-08T18:01:22.307Z,45.10
2023-01-08T18:03:50.647Z,46.25
2023-01-08T18:06:18.876Z,48.22
2023-01-08T18:08:47.386Z,46.38
2023-01-08T18:11:17.081Z,50.78
2023-01-08T18:13:45.302Z,45.17
2023-01-08T18:16:15.031Z,44.60
2023-01-08T18:18:43.279Z,45.75
2023-01-08T18:21:11.540Z,45.88
2023-01-08T18:23:39.790Z,44.35
2023-01-08T18:26:11.449Z,49.65
2023-01-08T18:28:41.965Z,47.05
2023-01-08T18:31:11.649Z,46.88
2023-01-08T18:33:40.800Z,49.53
2023-01-08T18:36:12.683Z,50.35
2023-01-08T18:38:43.166Z,47.60
2023-01-08T18:41:33.603Z,47.05
2023-01-08T18:44:04.507Z,47.50
2023-01-08T18:46:32.811Z,53.42
2023-01-08T18:49:01.071Z,49.88
2023-01-08T18:51:29.487Z,51.00
2023-01-08T18:53:57.676Z,50.47
2023-01-08T18:56:30.531Z,50.40
2023-01-08T18:58:59.146Z,52.92
2023-01-08T19:01:28.829Z,48.85
2023-01-08T19:03:57.631Z,51.38
2023-01-08T19:06:26.129Z,50.55
2023-01-08T19:08:57.495Z,47.83
2023-01-08T19:11:26.543Z,49.97
2023-01-08T19:13:56.513Z,49.47
2023-01-08T19:16:25.241Z,49.33
2023-01-08T19:18:55.202Z,50.72
2023-01-08T19:21:23.443Z,55.60
2023-01-08T19:23:51.953Z,46.78
2023-01-08T19:26:20.349Z,49.45
2023-01-08T19:28:48.562Z,53.83
2023-01-08T19:31:18.604Z,52.63
2023-01-08T19:33:47.321Z,55.80
2023-01-08T19:36:18.707Z,55.00
2023-01-08T19:38:46.922Z,50.75
2023-01-08T19:41:32.755Z,52.95
2023-01-08T19:44:01.319Z,55.70
2023-01-08T19:46:30.306Z,53.35
2023-01-08T19:48:59.422Z,53.50
2023-01-08T19:51:30.246Z,48.87
2023-01-08T19:53:59.373Z,58.33
2023-01-08T19:56:27.714Z,52.25
2023-01-08T19:58:56.839Z,60.07
2023-01-08T20:01:27.364Z,53.22
2023-01-08T20:03:57.060Z,57.28
2023-01-08T20:06:26.991Z,56.72
2023-01-08T20:09:00.073Z,53.13
2023-01-08T20:11:29.605Z,57.88
2023-01-08T20:14:00.534Z,59.33
2023-01-08T20:16:30.400Z,56.88
2023-01-08T20:18:59.319Z,55.30
2023-01-08T20:21:27.583Z,56.70
2023-01-08T20:23:59.264Z,63.78
2023-01-08T20:26:28.963Z,60.92
2023-01-08T20:28:58.141Z,55.37
2023-01-08T20:31:31.343Z,58.95
2023-01-08T20:34:01.214Z,54.97
2023-01-08T20:36:32.049Z,57.05
2023-01-08T20:39:03.316Z,62.33
2023-01-08T20:41:31.622Z,60.38
2023-01-08T20:44:01.394Z,67.00
2023-01-08T20:46:30.785Z,59.08
2023-01-08T20:49:02.866Z,59.78
2023-01-08T20:51:31.375Z,60.03
2023-01-08T20:54:02.879Z,63.47
2023-01-08T20:56:31.197Z,60.75
2023-01-08T20:58:59.734Z,61.67
2023-01-08T21:01:31.321Z,58.63
2023-01-08T21:04:00.843Z,58.17
2023-01-08T21:06:30.892Z,64.00
2023-01-08T21:09:03.159Z,63.15
2023-01-08T21:11:31.792Z,56.83
2023-01-08T21:13:59.964Z,65.93
2023-01-08T21:16:30.163Z,59.28
2023-01-08T21:18:59.309Z,64.05
2023-01-08T21:21:29.860Z,66.07
2023-01-08T21:23:58.287Z,62.60
2023-01-08T21:26:28.637Z,64.97
2023-01-08T21:28:56.789Z,66.93
2023-01-08T21:31:28.582Z,60.55
2023-01-08T21:33:58.234Z,61.30
2023-01-08T21:36:28.861Z,63.00
2023-01-08T21:38:58.256Z,67.45
2023-01-08T21:41:46.224Z,65.97
2023-01-08T21:44:33.491Z,67.07
2023-01-08T21:47:02.990Z,64.90
2023-01-08T21:49:31.783Z,65.35
2023-01-08T21:52:17.786Z,61.47
2023-01-08T21:54:46.021Z,67.63
2023-01-08T21:57:16.720Z,67.28
2023-01-08T21:59:45.379Z,65.00
2023-01-08T22:02:16.157Z,67.70
2023-01-08T22:04:44.569Z,65.47
2023-01-08T22:07:12.812Z,65.57
2023-01-08T22:09:41.126Z,69.60
2023-01-08T22:12:09.785Z,64.53
2023-01-08T22:14:39.561Z,57.72
2023-01-08T22:17:08.665Z,62.92
2023-01-08T22:19:38.431Z,64.78
2023-01-08T22:22:08.839Z,62.50
2023-01-08T22:24:38.793Z,63.88
2023-01-08T22:27:07.915Z,65.00
2023-01-08T22:29:36.431Z,60.95
2023-01-08T22:32:06.780Z,64.93
2023-01-08T22:34:36.149Z,58.65
2023-01-08T22:37:04.395Z,64.13
2023-01-08T22:39:32.784Z,62.05
2023-01-08T22:42:01.322Z,62.38
2023-01-08T22:44:29.635Z,60.35
2023-01-08T22:46:59.211Z,61.40
2023-01-08T22:49:29.117Z,60.80
2023-01-08T22:51:57.473Z,61.67
2023-01-08T22:54:25.711Z,60.03
2023-01-08T22:56:53.925Z,64.55
2023-01-08T22:59:22.226Z,60.05
2023-01-08T23:01:50.467Z,61.30
2023-01-08T23:04:18.818Z,64.78
2023-01-08T23:06:48.450Z,67.47
2023-01-08T23:09:16.736Z,60.63
2023-01-08T23:11:44.959Z,60.83
2023-01-08T23:14:15.943Z,61.00
2023-01-08T23:16:44.260Z,64.05
2023-01-08T23:19:12.513Z,61.65
2023-01-08T23:21:40.662Z,59.42
2023-01-08T23:24:13.696Z,61.53
2023-01-08T23:26:42.191Z,62.10
2023-01-08T23:29:10.629Z,65.95
2023-01-08T23:31:39.471Z,59.45
2023-01-08T23:34:07.885Z,61.60
2023-01-08T23:36:36.210Z,64.15
2023-01-08T23:39:05.311Z,58.60
2023-01-08T23:41:35.439Z,60.33
2023-01-08T23:44:06.096Z,61.13
2023-01-08T23:46:34.875Z,57.55
2023-01-08T23:49:03.010Z,58.08
2023-01-08T23:51:31.447Z,57.85
2023-01-08T23:53:59.688Z,57.40
2023-01-08T23:56:28.279Z,58.85
2023-01-08T23:58:59.030Z,60.63
